Time;durP1;ratioP1;P1;durP2;ratioP2;P2;SDS_P1;SDS_P2;PMS_P1;PMS_P2;Temp;Humidity;BMP_temperature;BMP_pressure;BME280_temperature;BME280_humidity;BME280_pressure;Samples;Min_cycle;Max_cycle;Signal;HPM_P1;HPM_P2
2022/06/12 00:00:39;;;;;;;;;;;;;;;21.47;47.71;101227.66;4997173;28;6966;-76
2022/06/12 00:03:09;;;;;;;;;;;;;;;21.34;48.21;101227.47;5006086;28;6907;-76
2022/06/12 00:05:38;;;;;;;;;;;;;;;21.23;48.14;101232.50;5003126;28;6820;-76
2022/06/12 00:08:05;;;;;;;;;;;;;;;21.11;48.32;101229.69;5005640;28;6799;-76
2022/06/12 00:10:34;;;;;;;;;;;;;;;21.00;48.70;101231.22;4998331;28;6816;-76
2022/06/12 00:13:00;;;;;;;;;;;;;;;20.90;48.89;101237.97;5002373;28;6812;-76
2022/06/12 00:15:29;;;;;;;;;;;;;;;20.79;49.03;101233.41;5002532;28;6808;-76
2022/06/12 00:17:55;;;;;;;;;;;;;;;20.71;49.18;101229.78;4973790;28;7141;-76
2022/06/12 00:20:23;;;;;;;;;;;;;;;20.63;49.20;101234.84;5004840;28;7240;-76
2022/06/12 00:22:52;;;;;;;;;;;;;;;20.52;49.39;101232.06;4982907;28;7062;-76
2022/06/12 00:25:18;;;;;;;;;;;;;;;20.45;49.97;101234.47;5001552;28;7188;-76
2022/06/12 00:27:45;;;;;;;;;;;;;;;20.37;50.03;101235.19;5004791;28;6953;-76
2022/06/12 00:30:16;;;;;;;;;;;;;;;20.30;49.94;101238.53;4999822;28;6966;-76
2022/06/12 00:32:42;;;;;;;;;;;;;;;20.22;50.39;101240.09;4989540;28;7318;-76
2022/06/12 00:35:10;;;;;;;;;;;;;;;20.15;50.50;101233.00;4982378;28;6804;-76
2022/06/12 00:37:37;;;;;;;;;;;;;;;20.07;50.78;101233.69;5001992;28;7023;-76
2022/06/12 00:40:05;;;;;;;;;;;;;;;20.00;50.17;101231.81;4988420;28;6968;-76
2022/06/12 00:42:46;;;;;;;;;;;;;;;19.93;50.39;101230.78;4999292;28;6821;-76
2022/06/12 00:45:52;;;;;;;;;;;;;;;19.85;51.04;101235.78;4984142;28;7004;-76
2022/06/12 00:48:33;;;;;;;;;;;;;;;19.76;51.07;101240.78;4992308;28;6906;-76
2022/06/12 00:51:15;;;;;;;;;;;;;;;19.70;51.12;101241.50;5004985;28;6807;-76
2022/06/12 00:53:56;;;;;;;;;;;;;;;19.64;51.40;101241.34;5002219;28;6920;-76
2022/06/12 00:56:30;;;;;;;;;;;;;;;19.59;51.77;101239.50;5017695;28;6884;-76
2022/06/12 00:59:10;;;;;;;;;;;;;;;19.52;51.38;101241.06;5002055;28;7113;-76
2022/06/12 01:01:46;;;;;;;;;;;;;;;19.45;51.63;101239.16;4998701;28;7199;-76
2022/06/12 01:07:06;;;;;;;;;;;;;;;19.28;51.84;101237.91;4998190;28;7066;-75
2022/06/12 01:09:38;;;;;;;;;;;;;;;19.24;52.51;101237.78;5001124;28;6895;-75
2022/06/12 01:12:10;;;;;;;;;;;;;;;19.19;52.55;101237.66;4982635;28;6804;-75
2022/06/12 01:14:57;;;;;;;;;;;;;;;19.15;52.82;101230.63;4970911;28;7018;-75
2022/06/12 01:17:26;;;;;;;;;;;;;;;19.12;52.76;101230.53;5003469;28;6831;-76
2022/06/12 01:19:59;;;;;;;;;;;;;;;19.09;52.76;101235.66;5003151;28;6803;-76
2022/06/12 01:22:57;;;;;;;;;;;;;;;19.08;53.72;101237.41;4997962;28;6808;-76
2022/06/12 01:25:54;;;;;;;;;;;;;;;19.06;53.16;101230.41;4982635;28;7003;-76
2022/06/12 01:28:38;;;;;;;;;;;;;;;19.02;53.08;101226.84;5019398;28;7659;-76
2022/06/12 01:31:41;;;;;;;;;;;;;;;19.00;53.04;101226.78;5000745;28;6811;-76
2022/06/12 01:34:46;;;;;;;;;;;;;;;18.95;54.09;101220.56;5022186;28;6975;-76
2022/06/12 01:37:50;;;;;;;;;;;;;;;18.91;53.75;101213.53;5005180;28;8119;-76
2022/06/12 01:40:38;;;;;;;;;;;;;;;18.90;54.05;101229.94;5000266;28;7015;-76
2022/06/12 01:43:15;;;;;;;;;;;;;;;18.86;53.48;101213.41;4996225;28;6982;-76
2022/06/12 01:46:06;;;;;;;;;;;;;;;18.84;53.36;101225.47;4994658;28;6823;-76
2022/06/12 01:48:43;;;;;;;;;;;;;;;18.80;53.47;101233.13;5005712;28;6891;-76
2022/06/12 01:51:27;;;;;;;;;;;;;;;18.76;53.57;101226.97;5002659;28;7230;-76
2022/06/12 01:53:58;;;;;;;;;;;;;;;18.72;53.67;101225.13;4989915;28;7848;-76
2022/06/12 01:56:37;;;;;;;;;;;;;;;18.68;53.77;101224.19;4999191;28;6799;-76
2022/06/12 01:59:20;;;;;;;;;;;;;;;18.66;53.49;101225.84;4991259;28;7150;-76
2022/06/12 02:01:51;;;;;;;;;;;;;;;18.63;54.21;101219.69;5004328;28;8156;-76
2022/06/12 02:04:27;;;;;;;;;;;;;;;18.60;53.91;101225.66;5003074;28;6792;-76
2022/06/12 02:07:31;;;;;;;;;;;;;;;18.59;54.55;101226.50;4999817;28;6808;-76
2022/06/12 02:10:33;;;;;;;;;;;;;;;18.53;53.85;101228.91;4986627;28;6820;-76
2022/06/12 02:13:13;;;;;;;;;;;;;;;18.49;54.36;101229.69;4954026;28;7112;-76
2022/06/12 02:16:07;;;;;;;;;;;;;;;18.45;54.07;101231.31;4997146;28;6816;-76
2022/06/12 02:18:38;;;;;;;;;;;;;;;18.40;54.46;101228.59;5001131;28;7035;-76
2022/06/12 02:21:41;;;;;;;;;;;;;;;18.37;54.61;101230.19;5003215;28;7419;-75
2022/06/12 02:24:19;;;;;;;;;;;;;;;18.33;54.84;101229.22;5002819;28;6966;-75
2022/06/12 02:27:11;;;;;;;;;;;;;;;18.30;54.94;101231.75;4975394;28;6812;-75
2022/06/12 02:30:02;;;;;;;;;;;;;;;18.23;54.94;101225.50;5010238;28;6815;-75
2022/06/12 02:32:47;;;;;;;;;;;;;;;18.20;55.40;101227.13;4986719;28;6915;-75
2022/06/12 02:35:29;;;;;;;;;;;;;;;18.15;54.70;101224.38;5005125;28;7061;-75
2022/06/12 02:38:05;;;;;;;;;;;;;;;18.12;55.25;101232.94;4987865;28;6962;-75
2022/06/12 02:40:40;;;;;;;;;;;;;;;18.10;55.12;101225.94;4999856;28;6804;-75
2022/06/12 02:43:15;;;;;;;;;;;;;;;18.07;56.03;101228.47;5002372;28;6811;-75
2022/06/12 02:46:01;;;;;;;;;;;;;;;18.04;56.12;101226.66;5004235;28;7194;-75
2022/06/12 02:48:29;;;;;;;;;;;;;;;18.02;56.36;101226.59;5008577;28;6816;-75
2022/06/12 02:51:03;;;;;;;;;;;;;;;18.01;55.98;101235.19;5007263;28;6816;-75
2022/06/12 02:54:12;;;;;;;;;;;;;;;18.00;55.84;101227.38;4991522;28;7192;-76
2022/06/12 02:57:19;;;;;;;;;;;;;;;17.98;55.85;101231.63;5004070;28;7213;-76
2022/06/12 03:00:06;;;;;;;;;;;;;;;17.99;56.14;101226.47;5009007;28;6823;-75
2022/06/12 03:02:47;;;;;;;;;;;;;;;18.04;56.82;101230.13;5001489;28;7892;-75
2022/06/12 03:05:31;;;;;;;;;;;;;;;18.12;56.45;101234.69;4977415;28;6902;-75
2022/06/12 03:08:06;;;;;;;;;;;;;;;18.13;56.44;101234.72;5006261;28;6900;-75
2022/06/12 03:10:42;;;;;;;;;;;;;;;18.15;56.40;101225.25;4992324;28;6980;-75
2022/06/12 03:13:10;;;;;;;;;;;;;;;18.18;56.68;101224.47;5004735;28;7254;-75
2022/06/12 03:15:57;;;;;;;;;;;;;;;18.17;56.44;101231.38;4995740;28;6800;-75
2022/06/12 03:18:36;;;;;;;;;;;;;;;18.17;55.98;101230.50;5007225;28;6961;-75
2022/06/12 03:21:42;;;;;;;;;;;;;;;18.14;55.96;101236.47;5004487;28;7304;-75
2022/06/12 03:24:26;;;;;;;;;;;;;;;18.10;56.02;101236.31;4980053;28;7158;-75
2022/06/12 03:27:13;;;;;;;;;;;;;;;18.06;56.09;101243.16;5001241;28;7170;-75
2022/06/12 03:30:00;;;;;;;;;;;;;;;18.01;56.23;101242.09;4985604;28;7660;-75
2022/06/12 03:32:30;;;;;;;;;;;;;;;17.98;55.74;101242.88;4998238;28;7077;-75
2022/06/12 03:35:02;;;;;;;;;;;;;;;17.96;55.88;101243.66;4983232;28;7150;-75
2022/06/12 03:37:53;;;;;;;;;;;;;;;17.94;55.96;101253.09;5022335;28;7942;-74
2022/06/12 03:40:41;;;;;;;;;;;;;;;17.90;56.16;101255.59;5007067;28;6864;-77
2022/06/12 03:43:16;;;;;;;;;;;;;;;17.88;55.84;101254.69;5003443;28;7481;-77
2022/06/12 03:46:04;;;;;;;;;;;;;;;17.86;56.13;101253.72;5000315;28;7006;-77
2022/06/12 03:48:43;;;;;;;;;;;;;;;17.86;55.97;101256.31;5002565;28;6888;-77
2022/06/12 03:51:46;;;;;;;;;;;;;;;17.85;55.95;101249.38;5002136;28;6788;-77
2022/06/12 03:54:28;;;;;;;;;;;;;;;17.89;55.90;101258.13;5005951;28;7069;-77
2022/06/12 04:00:30;;;;;;;;;;;;;;;17.94;55.96;101258.28;4999572;28;8130;-77
2022/06/12 04:03:14;;;;;;;;;;;;;;;17.97;55.74;101261.00;4966707;28;8728;-77
2022/06/12 04:05:57;;;;;;;;;;;;;;;17.99;55.54;101248.94;5003939;28;7317;-77
2022/06/12 04:08:33;;;;;;;;;;;;;;;18.01;55.36;101253.38;4987093;28;6819;-77
2022/06/12 04:10:59;;;;;;;;;;;;;;;18.06;55.80;101252.63;5001897;28;6816;-77
2022/06/12 04:13:25;;;;;;;;;;;;;;;18.10;55.28;101254.47;4979165;28;7094;-77
2022/06/12 04:16:05;;;;;;;;;;;;;;;18.19;55.93;101259.94;5002318;28;6970;-77
2022/06/12 04:18:33;;;;;;;;;;;;;;;18.36;56.63;101257.88;4979015;28;7007;-77
2022/06/12 04:21:31;;;;;;;;;;;;;;;18.63;56.73;101256.03;4994025;28;7193;-78
2022/06/12 04:24:27;;;;;;;;;;;;;;;18.99;56.96;101250.97;4986697;28;6800;-78
2022/06/12 04:27:05;;;;;;;;;;;;;;;19.40;56.80;101252.94;4983722;28;6819;-77
2022/06/12 04:29:37;;;;;;;;;;;;;;;19.79;56.66;101248.63;4995174;28;8092;-77
2022/06/12 04:32:07;;;;;;;;;;;;;;;20.18;56.33;101259.97;4992621;28;7193;-77
2022/06/12 04:34:39;;;;;;;;;;;;;;;20.59;56.11;101248.69;4992343;28;6874;-77
2022/06/12 04:37:17;;;;;;;;;;;;;;;21.01;55.40;101248.63;5004649;28;6878;-77
2022/06/12 04:39:46;;;;;;;;;;;;;;;21.37;54.56;101250.13;4988317;28;6796;-77
2022/06/12 04:42:19;;;;;;;;;;;;;;;21.72;54.38;101254.19;4993062;28;7003;-77
2022/06/12 04:44:45;;;;;;;;;;;;;;;22.10;53.94;101258.19;5002825;28;7000;-77
2022/06/12 04:47:16;;;;;;;;;;;;;;;22.45;52.73;101252.56;4984523;28;6784;-77
2022/06/12 04:49:42;;;;;;;;;;;;;;;22.82;51.88;101250.41;4985004;28;7200;-77
2022/06/12 04:52:10;;;;;;;;;;;;;;;23.08;51.34;101249.81;4982543;28;7327;-77
2022/06/12 04:54:41;;;;;;;;;;;;;;;23.31;50.94;101249.16;4997648;28;6883;-78
2022/06/12 04:57:10;;;;;;;;;;;;;;;23.52;50.15;101252.81;5009174;28;7411;-78
2022/06/12 04:59:37;;;;;;;;;;;;;;;23.72;50.22;101243.38;5001838;28;7180;-75
2022/06/12 05:02:04;;;;;;;;;;;;;;;23.95;49.28;101245.28;4981926;28;6902;-75
2022/06/12 05:04:31;;;;;;;;;;;;;;;24.16;48.61;101245.41;4987562;28;7549;-75
2022/06/12 05:06:57;;;;;;;;;;;;;;;24.38;48.97;101244.59;5000855;28;6804;-75
2022/06/12 05:09:29;;;;;;;;;;;;;;;24.63;48.32;101243.84;5003425;28;7521;-76
2022/06/12 05:11:56;;;;;;;;;;;;;;;24.86;47.21;101240.44;4984265;28;6863;-75
2022/06/12 05:14:22;;;;;;;;;;;;;;;25.01;46.88;101237.81;5002419;28;6808;-76
2022/06/12 05:16:58;;;;;;;;;;;;;;;25.14;46.15;101237.84;5003022;28;6791;-75
2022/06/12 05:19:31;;;;;;;;;;;;;;;25.15;45.27;101240.44;4969109;28;6990;-75
2022/06/12 05:21:58;;;;;;;;;;;;;;;25.18;44.87;101237.84;4977894;28;6800;-75
2022/06/12 05:24:24;;;;;;;;;;;;;;;25.24;44.83;101234.34;4997377;28;6835;-75
2022/06/12 05:26:52;;;;;;;;;;;;;;;25.35;44.61;101235.22;4987499;28;7019;-76
2022/06/12 05:29:32;;;;;;;;;;;;;;;25.45;43.50;101243.09;4983561;28;6948;-75
2022/06/12 05:31:58;;;;;;;;;;;;;;;25.57;42.75;101243.09;4983232;28;6887;-76
2022/06/12 05:34:26;;;;;;;;;;;;;;;25.67;41.74;101248.34;4997966;28;6815;-76
2022/06/12 05:36:53;;;;;;;;;;;;;;;25.74;41.36;101245.72;5003890;28;6968;-76
2022/06/12 05:39:20;;;;;;;;;;;;;;;25.90;41.60;101243.94;4989262;28;6812;-76
2022/06/12 05:41:46;;;;;;;;;;;;;;;26.06;41.84;101236.00;4978436;28;7011;-76
2022/06/12 05:44:13;;;;;;;;;;;;;;;26.24;41.57;101242.09;4994986;28;6950;-76
2022/06/12 05:46:39;;;;;;;;;;;;;;;26.38;40.88;101240.31;4998976;28;7072;-76
2022/06/12 05:49:06;;;;;;;;;;;;;;;26.51;40.50;101234.97;4997673;28;6886;-76
2022/06/12 05:51:33;;;;;;;;;;;;;;;26.60;40.26;101240.19;4985540;28;6819;-75
2022/06/12 05:53:59;;;;;;;;;;;;;;;26.66;39.86;101241.91;4998585;28;6808;-76
2022/06/12 05:56:28;;;;;;;;;;;;;;;26.61;39.48;101245.44;4977553;28;7368;-76
2022/06/12 05:58:56;;;;;;;;;;;;;;;26.54;38.98;101242.84;5003514;28;6943;-76
2022/06/12 06:01:23;;;;;;;;;;;;;;;26.31;38.53;101247.31;4989633;28;8405;-76
2022/06/12 06:03:50;;;;;;;;;;;;;;;25.96;38.31;101242.16;4960232;28;7057;-75
2022/06/12 06:06:25;;;;;;;;;;;;;;;25.53;38.12;101254.50;4984553;28;6870;-75
2022/06/12 06:08:52;;;;;;;;;;;;;;;25.08;37.93;101242.19;5000008;28;7010;-75
2022/06/12 06:11:19;;;;;;;;;;;;;;;24.69;38.76;101255.22;4999005;28;7345;-75
2022/06/12 06:13:46;;;;;;;;;;;;;;;24.31;38.24;101258.56;4992291;28;7026;-75
2022/06/12 06:16:11;;;;;;;;;;;;;;;23.96;38.82;101260.13;4992694;28;6812;-75
2022/06/12 06:18:40;;;;;;;;;;;;;;;23.67;39.15;101265.13;4984108;28;7828;-75
2022/06/12 06:21:11;;;;;;;;;;;;;;;23.39;39.02;101263.19;5000165;28;7776;-75
2022/06/12 06:23:38;;;;;;;;;;;;;;;23.15;39.51;101259.44;5000471;28;6811;-75
2022/06/12 06:26:05;;;;;;;;;;;;;;;22.95;39.62;101264.50;5002470;28;6804;-75
2022/06/12 06:28:32;;;;;;;;;;;;;;;22.77;39.03;101264.28;5001982;28;6820;-75
2022/06/12 06:30:59;;;;;;;;;;;;;;;22.60;39.75;101265.84;4980549;28;7640;-76
2022/06/12 06:33:25;;;;;;;;;;;;;;;22.48;39.84;101263.94;4981863;28;6915;-75
2022/06/12 06:35:51;;;;;;;;;;;;;;;22.39;40.13;101270.75;4969190;28;7065;-76
2022/06/12 06:38:18;;;;;;;;;;;;;;;22.31;40.28;101271.56;4997797;28;7006;-75
2022/06/12 06:40:43;;;;;;;;;;;;;;;22.25;40.56;101266.25;5001308;28;6968;-75
2022/06/12 06:43:10;;;;;;;;;;;;;;;22.21;40.42;101274.88;4997471;28;6799;-75
2022/06/12 06:48:25;;;;;;;;;;;;;;;22.15;41.01;101280.03;4997114;28;6884;-75
2022/06/12 06:50:52;;;;;;;;;;;;;;;22.18;41.17;101278.34;4976811;28;6804;-76
2022/06/12 06:53:18;;;;;;;;;;;;;;;22.24;41.50;101269.72;5001666;28;8502;-75
2022/06/12 06:55:46;;;;;;;;;;;;;;;22.43;41.58;101272.56;4983781;28;8194;-75
2022/06/12 06:58:18;;;;;;;;;;;;;;;22.71;41.58;101267.72;4991887;28;7200;-75
2022/06/12 07:00:47;;;;;;;;;;;;;;;23.08;41.29;101267.22;4996495;28;6896;-75
2022/06/12 07:03:13;;;;;;;;;;;;;;;23.49;41.21;101271.97;4993547;28;6819;-75
2022/06/12 07:05:41;;;;;;;;;;;;;;;23.95;41.05;101271.44;4967236;28;6983;-76
2022/06/12 07:08:07;;;;;;;;;;;;;;;24.46;40.81;101275.22;4968143;28;9497;-76
2022/06/12 07:10:35;;;;;;;;;;;;;;;25.00;39.99;101270.16;5000139;28;6879;-76
2022/06/12 07:13:01;;;;;;;;;;;;;;;25.50;39.76;101265.84;4994879;28;8165;-76
2022/06/12 07:15:29;;;;;;;;;;;;;;;25.99;39.05;101260.56;4974707;28;7241;-75
2022/06/12 07:17:58;;;;;;;;;;;;;;;26.45;38.53;101252.50;4993172;28;6796;-75
2022/06/12 07:20:30;;;;;;;;;;;;;;;26.88;37.82;101256.69;4998695;28;7108;-75
2022/06/12 07:22:56;;;;;;;;;;;;;;;27.25;37.59;101250.28;4982604;28;7160;-75
2022/06/12 07:25:22;;;;;;;;;;;;;;;27.57;36.70;101251.78;4978172;28;9144;-75
2022/06/12 07:27:49;;;;;;;;;;;;;;;27.78;35.96;101255.09;4983138;28;7639;-76
2022/06/12 07:30:22;;;;;;;;;;;;;;;27.90;35.39;101258.47;5001678;28;7330;-75
2022/06/12 07:32:49;;;;;;;;;;;;;;;28.11;35.31;101258.25;4984398;28;6943;-76
2022/06/12 07:35:15;;;;;;;;;;;;;;;28.38;34.66;101252.69;4967481;28;9462;-75
2022/06/12 07:37:41;;;;;;;;;;;;;;;28.66;34.24;101247.91;4979680;28;7719;-75
2022/06/12 07:40:20;;;;;;;;;;;;;;;28.90;34.54;101253.75;4982206;28;7666;-75
2022/06/12 07:42:46;;;;;;;;;;;;;;;29.08;34.03;101251.72;4983634;28;8074;-76
2022/06/12 07:45:14;;;;;;;;;;;;;;;29.27;33.45;101256.72;4985657;28;7652;-76
2022/06/12 07:47:40;;;;;;;;;;;;;;;29.41;33.04;101254.69;4966139;28;7432;-76
2022/06/12 07:50:07;;;;;;;;;;;;;;;29.59;32.44;101261.44;4986047;28;6792;-76
2022/06/12 07:52:32;;;;;;;;;;;;;;;29.82;33.09;101256.63;5003340;28;8123;-76
2022/06/12 07:54:58;;;;;;;;;;;;;;;29.99;32.08;101258.97;5005403;28;6970;-76
2022/06/12 07:57:24;;;;;;;;;;;;;;;30.15;32.29;101256.91;5002442;28;7140;-76
2022/06/12 07:59:50;;;;;;;;;;;;;;;30.30;31.59;101253.91;5005767;28;6951;-76
2022/06/12 08:02:16;;;;;;;;;;;;;;;30.36;32.05;101260.84;5004528;28;6807;-76
2022/06/12 08:04:42;;;;;;;;;;;;;;;30.42;31.43;101259.84;4987990;28;8746;-79
2022/06/12 08:07:08;;;;;;;;;;;;;;;30.49;31.06;101251.75;5003607;28;8004;-76
2022/06/12 08:09:33;;;;;;;;;;;;;;;30.57;30.65;101256.03;4983536;28;8841;-76
2022/06/12 08:11:59;;;;;;;;;;;;;;;30.76;30.47;101251.19;4995117;28;7121;-76
2022/06/12 08:14:26;;;;;;;;;;;;;;;30.99;29.95;101245.34;5006654;28;6792;-76
2022/06/12 08:16:52;;;;;;;;;;;;;;;31.24;30.06;101246.56;5004318;28;6967;-76
2022/06/12 08:22:07;;;;;;;;;;;;;;;31.80;29.22;101253.03;4996416;28;7380;-76
2022/06/12 08:24:36;;;;;;;;;;;;;;;31.99;29.21;101248.09;4978587;28;8691;-76
2022/06/12 08:27:02;;;;;;;;;;;;;;;32.08;28.88;101254.94;4988710;28;6812;-76
2022/06/12 08:29:28;;;;;;;;;;;;;;;32.21;28.76;101247.47;4986335;28;6804;-77
2022/06/12 08:32:05;;;;;;;;;;;;;;;32.39;28.86;101241.66;5003921;28;6820;-76
2022/06/12 08:34:41;;;;;;;;;;;;;;;32.62;27.67;101241.84;5000555;28;6819;-76
2022/06/12 08:37:17;;;;;;;;;;;;;;;32.87;27.83;101239.28;5000159;28;6819;-76
2022/06/12 08:39:43;;;;;;;;;;;;;;;33.14;27.86;101235.81;4988508;28;8206;-76
2022/06/12 08:42:36;;;;;;;;;;;;;;;33.35;27.45;101232.41;5003391;28;6812;-76
2022/06/12 08:45:21;;;;;;;;;;;;;;;33.51;27.76;101232.75;5004388;28;6885;-76
2022/06/12 08:47:51;;;;;;;;;;;;;;;33.75;27.33;101224.81;5000553;28;6919;-76
2022/06/12 08:50:51;;;;;;;;;;;;;;;33.94;26.95;101225.00;5017527;28;6919;-76
2022/06/12 08:53:40;;;;;;;;;;;;;;;34.12;27.30;101230.59;4987892;28;8360;-76
2022/06/12 08:56:24;;;;;;;;;;;;;;;34.41;26.07;101219.72;5004109;28;6835;-76
2022/06/12 08:59:11;;;;;;;;;;;;;;;34.71;25.90;101215.00;5003555;28;6808;-76
2022/06/12 09:01:44;;;;;;;;;;;;;;;35.03;25.33;101210.09;4976299;28;7261;-76
2022/06/12 09:04:16;;;;;;;;;;;;;;;35.34;24.74;101217.72;5006637;28;7891;-76
2022/06/12 09:06:44;;;;;;;;;;;;;;;35.54;24.80;101214.19;4985240;28;6811;-76
2022/06/12 09:09:44;;;;;;;;;;;;;;;35.75;24.90;101200.88;5021037;28;7899;-76
2022/06/12 09:12:43;;;;;;;;;;;;;;;36.05;24.43;101203.91;4988487;28;6827;-76
2022/06/12 09:15:21;;;;;;;;;;;;;;;36.30;24.75;101194.75;5019720;28;6807;-75
2022/06/12 09:18:28;;;;;;;;;;;;;;;36.39;24.06;101191.63;5020126;28;7484;-75
2022/06/12 09:21:15;;;;;;;;;;;;;;;36.26;23.67;101186.03;5004234;28;6958;-75
2022/06/12 09:24:06;;;;;;;;;;;;;;;36.23;23.77;101191.53;5003029;28;7453;-75
2022/06/12 09:26:53;;;;;;;;;;;;;;;36.20;23.48;101188.13;5001009;28;6811;-75
2022/06/12 09:29:42;;;;;;;;;;;;;;;36.30;24.15;101186.75;5001133;28;7040;-76
2022/06/12 09:32:40;;;;;;;;;;;;;;;36.58;24.21;101188.09;4992060;28;7131;-76
2022/06/12 09:35:36;;;;;;;;;;;;;;;36.96;23.27;101187.97;5005270;28;6853;-76
2022/06/12 09:38:22;;;;;;;;;;;;;;;37.34;23.29;101183.41;5001636;28;6835;-76
2022/06/12 09:41:20;;;;;;;;;;;;;;;37.49;22.63;101182.59;5016877;28;8026;-75
2022/06/12 09:44:23;;;;;;;;;;;;;;;37.58;22.65;101191.09;5000152;28;6828;-75
2022/06/12 09:47:14;;;;;;;;;;;;;;;37.59;22.10;101179.44;5002317;28;6982;-75
2022/06/12 09:49:49;;;;;;;;;;;;;;;37.55;21.81;101186.75;4997454;28;7895;-75
2022/06/12 09:52:50;;;;;;;;;;;;;;;37.50;22.43;101184.31;5016774;28;7853;-75
2022/06/12 09:55:33;;;;;;;;;;;;;;;37.56;21.97;101188.50;5000207;28;6982;-75
2022/06/12 09:58:04;;;;;;;;;;;;;;;37.62;22.48;101184.63;5003632;28;8740;-75
2022/06/12 10:00:45;;;;;;;;;;;;;;;37.75;22.39;101177.63;5015465;28;7149;-75
2022/06/12 10:03:44;;;;;;;;;;;;;;;37.97;21.61;101179.16;4977174;28;6812;-75
2022/06/12 10:06:24;;;;;;;;;;;;;;;38.16;21.53;101175.47;4981345;28;6832;-75
2022/06/12 10:09:06;;;;;;;;;;;;;;;37.95;21.55;101175.66;4989119;28;8545;-75
2022/06/12 10:11:50;;;;;;;;;;;;;;;37.81;21.61;101172.91;4999708;28;8700;-74
2022/06/12 10:14:36;;;;;;;;;;;;;;;37.69;21.33;101178.00;4962343;28;8071;-74
2022/06/12 10:17:30;;;;;;;;;;;;;;;37.74;22.06;101175.06;4978793;28;7282;-74
2022/06/12 10:20:26;;;;;;;;;;;;;;;37.94;21.44;101179.28;5002819;28;8000;-75
2022/06/12 10:22:54;;;;;;;;;;;;;;;38.12;21.61;101187.28;4995196;28;7019;-75
2022/06/12 10:25:27;;;;;;;;;;;;;;;38.28;21.23;101180.09;4961536;28;8441;-75
2022/06/12 10:28:06;;;;;;;;;;;;;;;38.42;21.26;101171.28;4978388;28;7287;-75
2022/06/12 10:30:47;;;;;;;;;;;;;;;38.67;21.28;101171.69;5000442;28;7847;-75
2022/06/12 10:33:28;;;;;;;;;;;;;;;38.93;21.09;101171.94;5001306;28;6835;-75
2022/06/12 10:36:05;;;;;;;;;;;;;;;39.29;21.18;101165.28;5001195;28;6977;-75
2022/06/12 10:38:36;;;;;;;;;;;;;;;39.50;20.57;101167.63;4980873;28;7268;-75
2022/06/12 10:41:19;;;;;;;;;;;;;;;39.64;20.47;101164.94;4982118;28;8004;-75
2022/06/12 10:43:49;;;;;;;;;;;;;;;39.83;20.32;101161.06;4998003;28;6989;-75
2022/06/12 10:46:14;;;;;;;;;;;;;;;40.03;20.19;101153.59;5000085;28;7012;-75
2022/06/12 10:48:42;;;;;;;;;;;;;;;40.03;19.60;101167.00;5001430;28;6827;-75
2022/06/12 10:51:13;;;;;;;;;;;;;;;39.58;19.48;101160.84;4999518;28;6808;-75
2022/06/12 10:53:39;;;;;;;;;;;;;;;39.21;19.51;101159.53;5002856;28;6815;-75
2022/06/12 10:56:39;;;;;;;;;;;;;;;38.89;19.94;101158.72;4989375;28;8421;-75
2022/06/12 10:59:33;;;;;;;;;;;;;;;38.54;20.33;101159.03;5017551;28;6831;-75
2022/06/12 11:02:26;;;;;;;;;;;;;;;38.28;20.36;101156.03;4980890;28;7081;-75
2022/06/12 11:05:32;;;;;;;;;;;;;;;38.05;20.50;101146.63;5006342;28;8091;-75
2022/06/12 11:08:28;;;;;;;;;;;;;;;38.41;20.86;101144.59;5008173;28;7287;-75
2022/06/12 11:11:15;;;;;;;;;;;;;;;38.89;20.59;101142.66;5000625;28;7018;-75
2022/06/12 11:14:24;;;;;;;;;;;;;;;39.25;20.44;101137.81;5002972;28;6828;-75
2022/06/12 11:17:36;;;;;;;;;;;;;;;39.60;19.88;101141.09;5003736;28;7353;-75
2022/06/12 11:20:40;;;;;;;;;;;;;;;39.95;19.74;101135.31;4986371;28;6835;-75
2022/06/12 11:23:55;;;;;;;;;;;;;;;40.25;19.64;101124.34;5004293;28;8984;-75
2022/06/12 11:27:07;;;;;;;;;;;;;;;39.99;19.45;101134.13;5015990;28;6803;-75
2022/06/12 11:30:10;;;;;;;;;;;;;;;39.87;19.94;101127.75;5007097;28;7195;-75
2022/06/12 11:32:58;;;;;;;;;;;;;;;39.99;19.48;101123.41;5007225;28;7003;-75
2022/06/12 11:36:05;;;;;;;;;;;;;;;39.56;19.47;101127.03;5004579;28;7011;-75
2022/06/12 11:39:11;;;;;;;;;;;;;;;39.02;19.60;101123.19;4983409;28;8449;-75
2022/06/12 11:41:46;;;;;;;;;;;;;;;38.15;20.15;101130.91;4985599;28;6985;-75
2022/06/12 11:45:00;;;;;;;;;;;;;;;36.91;20.92;101127.72;5004714;28;7132;-75
2022/06/12 11:47:29;;;;;;;;;;;;;;;36.11;22.18;101128.09;4985979;28;7004;-75
2022/06/12 11:50:32;;;;;;;;;;;;;;;35.91;22.26;101131.69;5003622;28;6819;-74
2022/06/12 11:53:22;;;;;;;;;;;;;;;35.30;22.75;101121.97;5001869;28;7236;-75
2022/06/12 11:56:26;;;;;;;;;;;;;;;34.67;22.90;101116.72;5002652;28;7312;-74
2022/06/12 11:59:38;;;;;;;;;;;;;;;34.36;23.91;101108.19;5001390;28;7256;-74
2022/06/12 12:02:33;;;;;;;;;;;;;;;34.32;24.50;101104.78;4993966;28;7232;-74
2022/06/12 12:05:03;;;;;;;;;;;;;;;34.92;24.10;101099.69;5004129;28;6812;-74
2022/06/12 12:07:37;;;;;;;;;;;;;;;35.38;23.54;101104.78;5004186;28;6816;-74
2022/06/12 12:10:40;;;;;;;;;;;;;;;35.56;23.45;101101.31;5005389;28;8088;-75
2022/06/12 12:13:17;;;;;;;;;;;;;;;35.36;23.10;101098.66;5004137;28;6911;-75
2022/06/12 12:15:54;;;;;;;;;;;;;;;35.36;23.12;101110.19;4983317;28;9826;-75
2022/06/12 12:18:41;;;;;;;;;;;;;;;35.36;23.66;101110.19;5000715;28;7157;-75
2022/06/12 12:21:21;;;;;;;;;;;;;;;35.50;22.76;101106.88;4980604;28;8378;-75
2022/06/12 12:23:49;;;;;;;;;;;;;;;35.40;22.82;101108.25;5004049;28;6887;-75
2022/06/12 12:26:31;;;;;;;;;;;;;;;35.00;23.11;101109.06;4971837;28;6804;-75
2022/06/12 12:29:14;;;;;;;;;;;;;;;34.39;22.97;101102.75;5001831;28;7891;-75
2022/06/12 12:31:43;;;;;;;;;;;;;;;33.66;23.53;101103.78;4994793;28;6816;-75
2022/06/12 12:34:10;;;;;;;;;;;;;;;33.10;23.72;101105.78;5001068;28;7288;-75
2022/06/12 12:42:23;;;;;;;;;;;;;;;31.91;25.29;101113.19;5006109;28;7161;-75
2022/06/12 12:44:50;;;;;;;;;;;;;;;31.64;25.33;101110.41;5001902;28;7140;-75
2022/06/12 12:47:29;;;;;;;;;;;;;;;31.32;25.81;101109.56;5003086;28;6988;-75
2022/06/12 12:50:17;;;;;;;;;;;;;;;30.97;26.51;101114.88;4999394;28;7022;-75
2022/06/12 12:52:53;;;;;;;;;;;;;;;30.68;27.20;101102.38;5021592;28;7145;-74
2022/06/12 12:55:29;;;;;;;;;;;;;;;30.37;26.67;101103.09;4996261;28;6819;-74
2022/06/12 12:58:12;;;;;;;;;;;;;;;30.06;27.27;101088.81;4991233;28;7278;-74
2022/06/12 13:00:38;;;;;;;;;;;;;;;30.06;28.23;101100.28;5015953;28;6835;-74
2022/06/12 13:03:30;;;;;;;;;;;;;;;30.70;28.79;101092.63;4999054;28;8015;-75
2022/06/12 13:06:26;;;;;;;;;;;;;;;31.54;27.82;101083.31;4997416;28;7290;-75
2022/06/12 13:09:15;;;;;;;;;;;;;;;32.33;27.17;101074.75;4993055;28;6816;-75
2022/06/12 13:12:13;;;;;;;;;;;;;;;33.09;25.54;101076.66;4983256;28;7262;-75
2022/06/12 13:14:47;;;;;;;;;;;;;;;33.14;24.63;101069.38;4993783;28;8050;-75
2022/06/12 13:17:51;;;;;;;;;;;;;;;33.06;24.00;101067.03;5011145;28;8421;-75
2022/06/12 13:20:29;;;;;;;;;;;;;;;33.15;24.85;101064.94;4997341;28;6828;-74
2022/06/12 13:23:30;;;;;;;;;;;;;;;33.52;24.24;101064.47;5001223;28;6876;-74
2022/06/12 13:26:05;;;;;;;;;;;;;;;33.47;23.86;101058.47;5012871;28;7139;-74
2022/06/12 13:28:34;;;;;;;;;;;;;;;33.48;24.25;101052.22;4993588;28;6815;-75
2022/06/12 13:31:03;;;;;;;;;;;;;;;33.51;24.13;101049.44;4981777;28;6816;-75
2022/06/12 13:33:34;;;;;;;;;;;;;;;33.82;24.03;101052.72;4980011;28;8526;-75
2022/06/12 13:36:14;;;;;;;;;;;;;;;34.36;24.26;101054.97;5004816;28;6807;-75
2022/06/12 13:39:00;;;;;;;;;;;;;;;34.93;23.32;101049.03;4997470;28;6812;-75
2022/06/12 13:41:27;;;;;;;;;;;;;;;35.36;23.15;101040.06;4989787;28;6812;-75
2022/06/12 13:43:55;;;;;;;;;;;;;;;35.75;22.20;101028.47;4985269;28;7911;-75
2022/06/12 13:46:35;;;;;;;;;;;;;;;35.90;21.47;101028.63;4984210;28;7425;-74
2022/06/12 13:49:12;;;;;;;;;;;;;;;35.79;21.25;101023.84;4983682;28;6894;-75
2022/06/12 13:51:58;;;;;;;;;;;;;;;35.82;21.21;101021.88;4997649;28;6958;-75
2022/06/12 13:54:27;;;;;;;;;;;;;;;36.00;21.20;101013.91;4999543;28;7879;-74
2022/06/12 13:56:59;;;;;;;;;;;;;;;36.20;21.72;101017.41;5000243;28;7892;-74
2022/06/12 13:59:43;;;;;;;;;;;;;;;36.24;20.73;101017.16;4981452;28;6831;-74
2022/06/12 14:02:24;;;;;;;;;;;;;;;36.13;21.29;101014.19;4997267;28;6831;-74